sensor_id;sensor_type;location;lat;lon;timestamp;P1;durP1;ratioP1;P2;durP2;ratioP2
73251;SDS011;61473;50.834;4.552;2022-08-21T00:02:17;2.58;;;1.10;;
73251;SDS011;61473;50.834;4.552;2022-08-21T00:04:45;2.63;;;1.05;;
73251;SDS011;61473;50.834;4.552;2022-08-21T00:07:12;4.85;;;1.40;;
73251;SDS011;61473;50.834;4.552;2022-08-21T00:09:37;1.38;;;1.15;;
73251;SDS011;61473;50.834;4.552;2022-08-21T00:12:04;3.30;;;1.50;;
73251;SDS011;61473;50.834;4.552;2022-08-21T00:14:30;3.20;;;1.33;;
73251;SDS011;61473;50.834;4.552;2022-08-21T00:16:57;3.10;;;1.45;;
73251;SDS011;61473;50.834;4.552;2022-08-21T00:19:23;2.00;;;1.20;;
73251;SDS011;61473;50.834;4.552;2022-08-21T00:21:50;3.10;;;1.77;;
73251;SDS011;61473;50.834;4.552;2022-08-21T00:24:17;2.90;;;1.23;;
73251;SDS011;61473;50.834;4.552;2022-08-21T00:26:43;2.90;;;1.52;;
73251;SDS011;61473;50.834;4.552;2022-08-21T00:29:10;2.22;;;1.30;;
73251;SDS011;61473;50.834;4.552;2022-08-21T00:31:36;2.50;;;1.30;;
73251;SDS011;61473;50.834;4.552;2022-08-21T00:34:02;4.75;;;1.42;;
73251;SDS011;61473;50.834;4.552;2022-08-21T00:36:28;1.42;;;1.00;;
73251;SDS011;61473;50.834;4.552;2022-08-21T00:38:54;4.05;;;1.38;;
73251;SDS011;61473;50.834;4.552;2022-08-21T00:41:21;2.80;;;1.42;;
73251;SDS011;61473;50.834;4.552;2022-08-21T00:43:48;2.33;;;1.40;;
73251;SDS011;61473;50.834;4.552;2022-08-21T00:46:15;1.52;;;0.90;;
73251;SDS011;61473;50.834;4.552;2022-08-21T00:48:41;3.22;;;1.25;;
73251;SDS011;61473;50.834;4.552;2022-08-21T00:51:08;2.35;;;1.27;;
73251;SDS011;61473;50.834;4.552;2022-08-21T00:53:39;2.95;;;1.58;;
73251;SDS011;61473;50.834;4.552;2022-08-21T00:56:07;1.50;;;1.10;;
73251;SDS011;61473;50.834;4.552;2022-08-21T00:58:35;2.03;;;1.00;;
73251;SDS011;61473;50.834;4.552;2022-08-21T01:01:03;1.42;;;1.10;;
73251;SDS011;61473;50.834;4.552;2022-08-21T01:03:31;2.30;;;1.75;;
73251;SDS011;61473;50.834;4.552;2022-08-21T01:05:57;2.67;;;1.10;;
73251;SDS011;61473;50.834;4.552;2022-08-21T01:08:23;2.28;;;1.42;;
73251;SDS011;61473;50.834;4.552;2022-08-21T01:10:50;12.77;;;3.08;;
73251;SDS011;61473;50.834;4.552;2022-08-21T01:13:18;3.10;;;1.25;;
73251;SDS011;61473;50.834;4.552;2022-08-21T01:15:45;2.13;;;1.25;;
73251;SDS011;61473;50.834;4.552;2022-08-21T01:18:14;3.28;;;1.55;;
73251;SDS011;61473;50.834;4.552;2022-08-21T01:20:42;3.22;;;1.67;;
73251;SDS011;61473;50.834;4.552;2022-08-21T01:23:11;4.55;;;1.40;;
73251;SDS011;61473;50.834;4.552;2022-08-21T01:25:37;1.88;;;1.23;;
73251;SDS011;61473;50.834;4.552;2022-08-21T01:28:11;1.38;;;0.90;;
73251;SDS011;61473;50.834;4.552;2022-08-21T01:30:39;3.10;;;1.20;;
73251;SDS011;61473;50.834;4.552;2022-08-21T01:33:07;1.88;;;1.23;;
73251;SDS011;61473;50.834;4.552;2022-08-21T01:35:32;2.05;;;1.02;;
73251;SDS011;61473;50.834;4.552;2022-08-21T01:37:58;1.75;;;1.00;;
73251;SDS011;61473;50.834;4.552;2022-08-21T01:40:24;2.50;;;1.50;;
73251;SDS011;61473;50.834;4.552;2022-08-21T01:42:50;2.00;;;1.00;;
73251;SDS011;61473;50.834;4.552;2022-08-21T01:45:16;2.70;;;1.15;;
73251;SDS011;61473;50.834;4.552;2022-08-21T01:47:43;2.30;;;1.50;;
73251;SDS011;61473;50.834;4.552;2022-08-21T01:50:11;1.80;;;1.15;;
73251;SDS011;61473;50.834;4.552;2022-08-21T01:52:39;1.40;;;1.10;;
73251;SDS011;61473;50.834;4.552;2022-08-21T01:55:06;2.05;;;1.10;;
73251;SDS011;61473;50.834;4.552;2022-08-21T01:57:33;2.70;;;1.10;;
73251;SDS011;61473;50.834;4.552;2022-08-21T01:59:59;3.38;;;1.17;;
73251;SDS011;61473;50.834;4.552;2022-08-21T02:02:25;1.92;;;1.00;;
73251;SDS011;61473;50.834;4.552;2022-08-21T02:04:51;2.53;;;1.20;;
73251;SDS011;61473;50.834;4.552;2022-08-21T02:07:16;2.88;;;1.20;;
73251;SDS011;61473;50.834;4.552;2022-08-21T02:09:43;2.25;;;1.30;;
73251;SDS011;61473;50.834;4.552;2022-08-21T02:12:09;2.78;;;1.10;;
73251;SDS011;61473;50.834;4.552;2022-08-21T02:14:36;2.78;;;1.17;;
73251;SDS011;61473;50.834;4.552;2022-08-21T02:17:02;2.28;;;1.10;;
73251;SDS011;61473;50.834;4.552;2022-08-21T02:19:28;3.75;;;1.02;;
73251;SDS011;61473;50.834;4.552;2022-08-21T02:21:54;2.90;;;1.30;;
73251;SDS011;61473;50.834;4.552;2022-08-21T02:24:20;2.60;;;1.10;;
73251;SDS011;61473;50.834;4.552;2022-08-21T02:26:45;1.98;;;0.93;;
73251;SDS011;61473;50.834;4.552;2022-08-21T02:29:11;5.15;;;1.00;;
73251;SDS011;61473;50.834;4.552;2022-08-21T02:31:37;2.03;;;0.90;;
73251;SDS011;61473;50.834;4.552;2022-08-21T02:34:03;1.65;;;1.05;;
73251;SDS011;61473;50.834;4.552;2022-08-21T02:36:29;1.70;;;0.85;;
73251;SDS011;61473;50.834;4.552;2022-08-21T02:38:54;2.03;;;0.80;;
73251;SDS011;61473;50.834;4.552;2022-08-21T02:41:21;2.47;;;1.65;;
73251;SDS011;61473;50.834;4.552;2022-08-21T02:43:48;1.67;;;1.02;;
73251;SDS011;61473;50.834;4.552;2022-08-21T02:46:15;2.63;;;1.20;;
73251;SDS011;61473;50.834;4.552;2022-08-21T02:48:42;2.58;;;1.33;;
73251;SDS011;61473;50.834;4.552;2022-08-21T02:51:09;1.60;;;0.85;;
73251;SDS011;61473;50.834;4.552;2022-08-21T02:53:40;2.22;;;1.10;;
73251;SDS011;61473;50.834;4.552;2022-08-21T02:56:07;2.13;;;1.00;;
73251;SDS011;61473;50.834;4.552;2022-08-21T02:58:43;2.10;;;1.20;;
73251;SDS011;61473;50.834;4.552;2022-08-21T03:03:37;3.05;;;1.10;;
73251;SDS011;61473;50.834;4.552;2022-08-21T03:06:06;2.08;;;1.00;;
73251;SDS011;61473;50.834;4.552;2022-08-21T03:08:33;1.27;;;0.90;;
73251;SDS011;61473;50.834;4.552;2022-08-21T03:11:00;2.28;;;1.15;;
73251;SDS011;61473;50.834;4.552;2022-08-21T03:13:26;4.63;;;1.88;;
73251;SDS011;61473;50.834;4.552;2022-08-21T03:15:53;2.03;;;1.05;;
73251;SDS011;61473;50.834;4.552;2022-08-21T03:18:19;3.63;;;1.10;;
73251;SDS011;61473;50.834;4.552;2022-08-21T03:20:45;3.25;;;1.20;;
73251;SDS011;61473;50.834;4.552;2022-08-21T03:23:12;1.05;;;0.68;;
73251;SDS011;61473;50.834;4.552;2022-08-21T03:25:39;1.30;;;0.90;;
73251;SDS011;61473;50.834;4.552;2022-08-21T03:28:05;1.35;;;0.80;;
73251;SDS011;61473;50.834;4.552;2022-08-21T03:30:35;1.33;;;0.95;;
73251;SDS011;61473;50.834;4.552;2022-08-21T03:33:01;3.15;;;1.27;;
73251;SDS011;61473;50.834;4.552;2022-08-21T03:35:28;1.52;;;0.65;;
73251;SDS011;61473;50.834;4.552;2022-08-21T03:37:54;2.13;;;0.82;;
73251;SDS011;61473;50.834;4.552;2022-08-21T03:40:21;1.42;;;0.90;;
73251;SDS011;61473;50.834;4.552;2022-08-21T03:42:47;3.47;;;1.15;;
73251;SDS011;61473;50.834;4.552;2022-08-21T03:45:14;1.55;;;0.80;;
73251;SDS011;61473;50.834;4.552;2022-08-21T03:47:58;1.63;;;1.33;;
73251;SDS011;61473;50.834;4.552;2022-08-21T03:50:26;4.13;;;1.27;;
73251;SDS011;61473;50.834;4.552;2022-08-21T03:52:55;1.75;;;0.80;;
73251;SDS011;61473;50.834;4.552;2022-08-21T03:55:21;2.03;;;1.58;;
73251;SDS011;61473;50.834;4.552;2022-08-21T03:57:47;2.97;;;1.50;;
73251;SDS011;61473;50.834;4.552;2022-08-21T04:00:13;1.83;;;1.02;;
73251;SDS011;61473;50.834;4.552;2022-08-21T04:02:40;1.77;;;1.05;;
73251;SDS011;61473;50.834;4.552;2022-08-21T04:05:09;1.55;;;1.13;;
73251;SDS011;61473;50.834;4.552;2022-08-21T04:07:35;3.10;;;0.93;;
73251;SDS011;61473;50.834;4.552;2022-08-21T04:10:01;2.88;;;1.08;;
73251;SDS011;61473;50.834;4.552;2022-08-21T04:12:28;1.73;;;0.80;;
73251;SDS011;61473;50.834;4.552;2022-08-21T04:14:53;1.55;;;0.80;;
73251;SDS011;61473;50.834;4.552;2022-08-21T04:17:19;1.65;;;0.90;;
73251;SDS011;61473;50.834;4.552;2022-08-21T04:19:44;2.47;;;0.98;;
73251;SDS011;61473;50.834;4.552;2022-08-21T04:22:10;2.03;;;0.70;;
73251;SDS011;61473;50.834;4.552;2022-08-21T04:24:36;3.10;;;1.27;;
73251;SDS011;61473;50.834;4.552;2022-08-21T04:27:03;0.95;;;0.80;;
73251;SDS011;61473;50.834;4.552;2022-08-21T04:29:29;3.88;;;1.42;;
73251;SDS011;61473;50.834;4.552;2022-08-21T04:31:54;1.77;;;0.75;;
73251;SDS011;61473;50.834;4.552;2022-08-21T04:34:20;2.05;;;0.90;;
73251;SDS011;61473;50.834;4.552;2022-08-21T04:36:46;1.73;;;0.90;;
73251;SDS011;61473;50.834;4.552;2022-08-21T04:39:11;4.60;;;0.80;;
73251;SDS011;61473;50.834;4.552;2022-08-21T04:41:37;1.35;;;1.08;;
73251;SDS011;61473;50.834;4.552;2022-08-21T04:44:03;1.38;;;0.73;;
73251;SDS011;61473;50.834;4.552;2022-08-21T04:46:29;1.48;;;1.20;;
73251;SDS011;61473;50.834;4.552;2022-08-21T04:48:55;2.03;;;0.90;;
73251;SDS011;61473;50.834;4.552;2022-08-21T04:53:57;1.73;;;0.93;;
73251;SDS011;61473;50.834;4.552;2022-08-21T04:59:00;1.65;;;0.85;;
73251;SDS011;61473;50.834;4.552;2022-08-21T05:01:30;1.92;;;0.85;;
73251;SDS011;61473;50.834;4.552;2022-08-21T05:03:59;1.40;;;0.75;;
73251;SDS011;61473;50.834;4.552;2022-08-21T05:06:30;2.17;;;1.05;;
73251;SDS011;61473;50.834;4.552;2022-08-21T05:08:58;6.85;;;1.00;;
73251;SDS011;61473;50.834;4.552;2022-08-21T05:11:26;2.00;;;0.93;;
73251;SDS011;61473;50.834;4.552;2022-08-21T05:13:51;2.20;;;1.00;;
73251;SDS011;61473;50.834;4.552;2022-08-21T05:16:17;1.98;;;0.93;;
73251;SDS011;61473;50.834;4.552;2022-08-21T05:18:43;1.85;;;0.80;;
73251;SDS011;61473;50.834;4.552;2022-08-21T05:21:09;1.70;;;0.82;;
73251;SDS011;61473;50.834;4.552;2022-08-21T05:23:35;1.60;;;0.75;;
73251;SDS011;61473;50.834;4.552;2022-08-21T05:26:01;3.05;;;1.45;;
73251;SDS011;61473;50.834;4.552;2022-08-21T05:28:29;4.13;;;1.10;;
73251;SDS011;61473;50.834;4.552;2022-08-21T05:30:55;2.80;;;0.57;;
73251;SDS011;61473;50.834;4.552;2022-08-21T05:33:21;1.35;;;0.88;;
73251;SDS011;61473;50.834;4.552;2022-08-21T05:35:49;1.65;;;0.50;;
73251;SDS011;61473;50.834;4.552;2022-08-21T05:38:17;1.90;;;1.15;;
73251;SDS011;61473;50.834;4.552;2022-08-21T05:40:43;0.73;;;0.63;;
73251;SDS011;61473;50.834;4.552;2022-08-21T05:43:09;1.30;;;0.70;;
73251;SDS011;61473;50.834;4.552;2022-08-21T05:45:34;1.58;;;0.70;;
73251;SDS011;61473;50.834;4.552;2022-08-21T05:48:07;1.83;;;0.98;;
73251;SDS011;61473;50.834;4.552;2022-08-21T05:50:33;1.33;;;1.00;;
73251;SDS011;61473;50.834;4.552;2022-08-21T05:53:00;1.35;;;0.80;;
73251;SDS011;61473;50.834;4.552;2022-08-21T05:55:26;1.90;;;0.80;;
73251;SDS011;61473;50.834;4.552;2022-08-21T05:57:51;1.50;;;1.05;;
73251;SDS011;61473;50.834;4.552;2022-08-21T06:00:17;1.85;;;1.13;;
73251;SDS011;61473;50.834;4.552;2022-08-21T06:02:43;2.45;;;0.75;;
73251;SDS011;61473;50.834;4.552;2022-08-21T06:05:09;1.13;;;0.88;;
73251;SDS011;61473;50.834;4.552;2022-08-21T06:07:35;2.15;;;1.13;;
73251;SDS011;61473;50.834;4.552;2022-08-21T06:10:00;2.08;;;1.02;;
73251;SDS011;61473;50.834;4.552;2022-08-21T06:12:27;2.63;;;0.85;;
73251;SDS011;61473;50.834;4.552;2022-08-21T06:14:53;1.65;;;0.93;;
73251;SDS011;61473;50.834;4.552;2022-08-21T06:17:18;1.88;;;0.98;;
73251;SDS011;61473;50.834;4.552;2022-08-21T06:19:44;2.47;;;1.08;;
73251;SDS011;61473;50.834;4.552;2022-08-21T06:22:10;1.50;;;0.93;;
73251;SDS011;61473;50.834;4.552;2022-08-21T06:24:36;3.63;;;1.52;;
73251;SDS011;61473;50.834;4.552;2022-08-21T06:27:05;1.92;;;0.80;;
73251;SDS011;61473;50.834;4.552;2022-08-21T06:29:32;2.80;;;0.93;;
73251;SDS011;61473;50.834;4.552;2022-08-21T06:31:59;1.90;;;0.90;;
73251;SDS011;61473;50.834;4.552;2022-08-21T06:34:25;3.70;;;1.00;;
73251;SDS011;61473;50.834;4.552;2022-08-21T06:36:51;1.10;;;0.80;;
73251;SDS011;61473;50.834;4.552;2022-08-21T06:39:17;1.92;;;0.80;;
73251;SDS011;61473;50.834;4.552;2022-08-21T06:41:42;0.93;;;0.60;;
73251;SDS011;61473;50.834;4.552;2022-08-21T06:44:08;2.97;;;1.10;;
73251;SDS011;61473;50.834;4.552;2022-08-21T06:46:34;1.80;;;1.00;;
73251;SDS011;61473;50.834;4.552;2022-08-21T06:49:00;1.25;;;0.63;;
73251;SDS011;61473;50.834;4.552;2022-08-21T06:51:26;3.05;;;0.88;;
73251;SDS011;61473;50.834;4.552;2022-08-21T06:53:52;1.50;;;0.77;;
73251;SDS011;61473;50.834;4.552;2022-08-21T06:56:18;2.80;;;1.00;;
73251;SDS011;61473;50.834;4.552;2022-08-21T06:58:44;3.80;;;0.90;;
73251;SDS011;61473;50.834;4.552;2022-08-21T07:01:10;1.95;;;0.80;;
73251;SDS011;61473;50.834;4.552;2022-08-21T07:03:38;3.08;;;0.75;;
73251;SDS011;61473;50.834;4.552;2022-08-21T07:06:06;3.72;;;1.02;;
73251;SDS011;61473;50.834;4.552;2022-08-21T07:08:33;2.90;;;0.88;;
73251;SDS011;61473;50.834;4.552;2022-08-21T07:11:00;2.75;;;1.58;;
73251;SDS011;61473;50.834;4.552;2022-08-21T07:13:29;3.17;;;1.58;;
73251;SDS011;61473;50.834;4.552;2022-08-21T07:15:54;2.72;;;0.82;;
73251;SDS011;61473;50.834;4.552;2022-08-21T07:18:20;1.85;;;0.82;;
73251;SDS011;61473;50.834;4.552;2022-08-21T07:20:46;3.58;;;0.95;;
73251;SDS011;61473;50.834;4.552;2022-08-21T07:23:22;3.13;;;1.38;;
73251;SDS011;61473;50.834;4.552;2022-08-21T07:25:57;3.80;;;1.02;;
73251;SDS011;61473;50.834;4.552;2022-08-21T07:28:24;2.80;;;1.00;;
73251;SDS011;61473;50.834;4.552;2022-08-21T07:30:50;2.03;;;0.90;;
73251;SDS011;61473;50.834;4.552;2022-08-21T07:33:18;3.95;;;1.55;;
73251;SDS011;61473;50.834;4.552;2022-08-21T07:35:43;1.35;;;0.65;;
73251;SDS011;61473;50.834;4.552;2022-08-21T07:38:09;1.55;;;0.88;;
73251;SDS011;61473;50.834;4.552;2022-08-21T07:40:35;1.50;;;0.60;;
73251;SDS011;61473;50.834;4.552;2022-08-21T07:43:01;2.25;;;1.00;;
73251;SDS011;61473;50.834;4.552;2022-08-21T07:45:28;2.95;;;1.00;;
73251;SDS011;61473;50.834;4.552;2022-08-21T07:47:53;3.05;;;1.25;;
73251;SDS011;61473;50.834;4.552;2022-08-21T07:50:19;4.28;;;0.77;;
73251;SDS011;61473;50.834;4.552;2022-08-21T07:52:45;1.85;;;0.60;;
73251;SDS011;61473;50.834;4.552;2022-08-21T07:55:13;1.73;;;1.23;;
73251;SDS011;61473;50.834;4.552;2022-08-21T07:57:42;1.23;;;0.52;;
73251;SDS011;61473;50.834;4.552;2022-08-21T08:00:10;2.65;;;1.20;;
73251;SDS011;61473;50.834;4.552;2022-08-21T08:02:39;2.85;;;1.13;;
73251;SDS011;61473;50.834;4.552;2022-08-21T08:05:06;3.72;;;1.13;;
73251;SDS011;61473;50.834;4.552;2022-08-21T08:07:33;3.40;;;1.15;;
73251;SDS011;61473;50.834;4.552;2022-08-21T08:09:59;1.60;;;0.88;;
73251;SDS011;61473;50.834;4.552;2022-08-21T08:12:25;3.03;;;1.10;;
73251;SDS011;61473;50.834;4.552;2022-08-21T08:14:55;2.38;;;1.40;;
73251;SDS011;61473;50.834;4.552;2022-08-21T08:17:22;2.45;;;0.88;;
73251;SDS011;61473;50.834;4.552;2022-08-21T08:19:48;3.53;;;1.30;;
73251;SDS011;61473;50.834;4.552;2022-08-21T08:22:15;1.65;;;0.90;;
73251;SDS011;61473;50.834;4.552;2022-08-21T08:24:44;2.28;;;0.80;;
73251;SDS011;61473;50.834;4.552;2022-08-21T08:27:11;3.58;;;1.65;;
73251;SDS011;61473;50.834;4.552;2022-08-21T08:29:37;2.75;;;1.10;;
73251;SDS011;61473;50.834;4.552;2022-08-21T08:32:03;3.10;;;1.50;;
73251;SDS011;61473;50.834;4.552;2022-08-21T08:34:30;4.38;;;1.27;;
73251;SDS011;61473;50.834;4.552;2022-08-21T08:36:55;4.32;;;1.33;;
73251;SDS011;61473;50.834;4.552;2022-08-21T08:39:23;3.47;;;1.45;;
73251;SDS011;61473;50.834;4.552;2022-08-21T08:41:51;2.22;;;1.02;;
73251;SDS011;61473;50.834;4.552;2022-08-21T08:44:28;2.25;;;0.90;;
73251;SDS011;61473;50.834;4.552;2022-08-21T08:46:55;3.33;;;1.40;;
73251;SDS011;61473;50.834;4.552;2022-08-21T08:52:40;3.53;;;1.83;;
73251;SDS011;61473;50.834;4.552;2022-08-21T08:55:25;2.63;;;1.08;;
73251;SDS011;61473;50.834;4.552;2022-08-21T08:57:56;2.95;;;1.17;;
73251;SDS011;61473;50.834;4.552;2022-08-21T09:00:23;2.53;;;1.23;;
73251;SDS011;61473;50.834;4.552;2022-08-21T09:02:51;4.75;;;1.40;;
73251;SDS011;61473;50.834;4.552;2022-08-21T09:05:25;5.20;;;1.40;;
73251;SDS011;61473;50.834;4.552;2022-08-21T09:08:54;5.30;;;1.30;;
73251;SDS011;61473;50.834;4.552;2022-08-21T09:11:30;3.20;;;1.35;;
73251;SDS011;61473;50.834;4.552;2022-08-21T09:16:40;3.20;;;1.27;;
73251;SDS011;61473;50.834;4.552;2022-08-21T09:25:00;4.70;;;1.50;;
73251;SDS011;61473;50.834;4.552;2022-08-21T09:27:33;2.80;;;1.13;;
73251;SDS011;61473;50.834;4.552;2022-08-21T09:29:59;2.83;;;1.00;;
73251;SDS011;61473;50.834;4.552;2022-08-21T09:32:26;2.83;;;1.10;;
73251;SDS011;61473;50.834;4.552;2022-08-21T09:35:36;3.95;;;1.48;;
73251;SDS011;61473;50.834;4.552;2022-08-21T09:37:53;4.57;;;1.25;;
73251;SDS011;61473;50.834;4.552;2022-08-21T09:40:31;3.08;;;1.20;;
73251;SDS011;61473;50.834;4.552;2022-08-21T09:45:33;4.60;;;1.35;;
73251;SDS011;61473;50.834;4.552;2022-08-21T09:48:12;4.45;;;1.83;;
73251;SDS011;61473;50.834;4.552;2022-08-21T09:50:44;3.22;;;1.38;;
73251;SDS011;61473;50.834;4.552;2022-08-21T09:53:18;3.42;;;1.30;;
73251;SDS011;61473;50.834;4.552;2022-08-21T09:55:49;3.97;;;1.73;;
73251;SDS011;61473;50.834;4.552;2022-08-21T09:58:36;3.13;;;1.25;;
73251;SDS011;61473;50.834;4.552;2022-08-21T10:01:04;6.22;;;1.58;;
73251;SDS011;61473;50.834;4.552;2022-08-21T10:03:31;4.47;;;0.98;;
73251;SDS011;61473;50.834;4.552;2022-08-21T10:06:02;3.00;;;1.08;;
73251;SDS011;61473;50.834;4.552;2022-08-21T10:08:33;4.10;;;1.35;;
73251;SDS011;61473;50.834;4.552;2022-08-21T10:11:07;2.80;;;1.25;;
73251;SDS011;61473;50.834;4.552;2022-08-21T10:24:26;2.50;;;1.20;;
73251;SDS011;61473;50.834;4.552;2022-08-21T10:30:08;4.43;;;1.30;;
73251;SDS011;61473;50.834;4.552;2022-08-21T10:40:29;3.15;;;1.27;;
73251;SDS011;61473;50.834;4.552;2022-08-21T10:51:32;4.03;;;1.33;;
73251;SDS011;61473;50.834;4.552;2022-08-21T10:57:01;2.67;;;1.00;;
73251;SDS011;61473;50.834;4.552;2022-08-21T10:59:34;2.00;;;1.30;;
73251;SDS011;61473;50.834;4.552;2022-08-21T11:02:19;4.28;;;1.85;;
73251;SDS011;61473;50.834;4.552;2022-08-21T11:05:02;3.95;;;1.33;;
73251;SDS011;61473;50.834;4.552;2022-08-21T11:07:38;4.97;;;1.60;;
73251;SDS011;61473;50.834;4.552;2022-08-21T11:10:21;3.13;;;1.30;;
73251;SDS011;61473;50.834;4.552;2022-08-21T11:13:17;4.28;;;1.73;;
73251;SDS011;61473;50.834;4.552;2022-08-21T11:15:56;4.82;;;1.40;;
73251;SDS011;61473;50.834;4.552;2022-08-21T11:18:39;6.20;;;1.15;;
73251;SDS011;61473;50.834;4.552;2022-08-21T11:21:36;2.38;;;1.13;;
73251;SDS011;61473;50.834;4.552;2022-08-21T11:31:51;4.00;;;1.45;;
73251;SDS011;61473;50.834;4.552;2022-08-21T11:39:57;1.95;;;1.02;;
73251;SDS011;61473;50.834;4.552;2022-08-21T11:42:29;2.88;;;1.25;;
73251;SDS011;61473;50.834;4.552;2022-08-21T11:45:10;3.42;;;1.60;;
73251;SDS011;61473;50.834;4.552;2022-08-21T11:50:29;3.63;;;1.33;;
73251;SDS011;61473;50.834;4.552;2022-08-21T11:52:59;5.38;;;1.55;;
73251;SDS011;61473;50.834;4.552;2022-08-21T11:55:28;3.30;;;1.10;;
73251;SDS011;61473;50.834;4.552;2022-08-21T11:58:07;4.85;;;1.33;;
73251;SDS011;61473;50.834;4.552;2022-08-21T12:00:42;3.28;;;1.48;;
73251;SDS011;61473;50.834;4.552;2022-08-21T12:05:42;2.55;;;1.10;;
73251;SDS011;61473;50.834;4.552;2022-08-21T12:13:30;1.55;;;0.90;;
73251;SDS011;61473;50.834;4.552;2022-08-21T12:16:07;3.60;;;1.73;;
73251;SDS011;61473;50.834;4.552;2022-08-21T12:18:37;5.25;;;1.73;;
73251;SDS011;61473;50.834;4.552;2022-08-21T12:21:05;1.73;;;1.00;;
73251;SDS011;61473;50.834;4.552;2022-08-21T12:24:02;3.97;;;1.67;;
73251;SDS011;61473;50.834;4.552;2022-08-21T12:26:34;5.35;;;2.13;;
73251;SDS011;61473;50.834;4.552;2022-08-21T12:29:21;4.30;;;1.27;;
73251;SDS011;61473;50.834;4.552;2022-08-21T12:31:55;4.00;;;1.83;;
73251;SDS011;61473;50.834;4.552;2022-08-21T12:34:40;1.60;;;0.93;;
73251;SDS011;61473;50.834;4.552;2022-08-21T12:39:52;6.55;;;1.50;;
73251;SDS011;61473;50.834;4.552;2022-08-21T12:42:20;4.93;;;1.35;;
73251;SDS011;61473;50.834;4.552;2022-08-21T12:44:55;3.92;;;1.30;;
73251;SDS011;61473;50.834;4.552;2022-08-21T12:47:33;5.50;;;1.90;;
73251;SDS011;61473;50.834;4.552;2022-08-21T12:50:11;5.03;;;1.60;;
73251;SDS011;61473;50.834;4.552;2022-08-21T12:52:55;3.10;;;1.52;;
73251;SDS011;61473;50.834;4.552;2022-08-21T12:55:30;5.18;;;1.35;;
73251;SDS011;61473;50.834;4.552;2022-08-21T12:57:57;4.75;;;1.50;;
73251;SDS011;61473;50.834;4.552;2022-08-21T13:00:24;3.05;;;1.45;;
73251;SDS011;61473;50.834;4.552;2022-08-21T13:02:51;5.38;;;1.20;;
73251;SDS011;61473;50.834;4.552;2022-08-21T13:05:29;5.80;;;1.65;;
73251;SDS011;61473;50.834;4.552;2022-08-21T13:07:58;5.20;;;1.90;;
73251;SDS011;61473;50.834;4.552;2022-08-21T13:10:29;3.42;;;1.23;;
73251;SDS011;61473;50.834;4.552;2022-08-21T13:12:57;4.47;;;1.23;;
73251;SDS011;61473;50.834;4.552;2022-08-21T13:15:29;3.85;;;1.45;;
73251;SDS011;61473;50.834;4.552;2022-08-21T13:17:57;3.95;;;1.52;;
73251;SDS011;61473;50.834;4.552;2022-08-21T13:20:31;3.55;;;1.42;;
73251;SDS011;61473;50.834;4.552;2022-08-21T13:23:00;4.15;;;1.80;;
73251;SDS011;61473;50.834;4.552;2022-08-21T13:25:29;5.05;;;1.50;;
73251;SDS011;61473;50.834;4.552;2022-08-21T13:28:09;4.28;;;1.50;;
73251;SDS011;61473;50.834;4.552;2022-08-21T13:30:42;6.05;;;1.65;;
73251;SDS011;61473;50.834;4.552;2022-08-21T13:33:10;3.83;;;1.35;;
73251;SDS011;61473;50.834;4.552;2022-08-21T13:35:50;2.33;;;1.30;;
73251;SDS011;61473;50.834;4.552;2022-08-21T13:38:34;4.43;;;1.10;;
73251;SDS011;61473;50.834;4.552;2022-08-21T13:43:59;3.95;;;1.10;;
73251;SDS011;61473;50.834;4.552;2022-08-21T13:46:33;2.53;;;1.00;;
73251;SDS011;61473;50.834;4.552;2022-08-21T13:49:00;2.88;;;1.13;;
73251;SDS011;61473;50.834;4.552;2022-08-21T13:51:28;5.32;;;1.50;;
73251;SDS011;61473;50.834;4.552;2022-08-21T13:53:56;2.65;;;1.08;;
73251;SDS011;61473;50.834;4.552;2022-08-21T13:58:48;5.57;;;1.60;;
73251;SDS011;61473;50.834;4.552;2022-08-21T14:01:20;3.20;;;1.38;;
73251;SDS011;61473;50.834;4.552;2022-08-21T14:03:47;4.07;;;1.50;;
73251;SDS011;61473;50.834;4.552;2022-08-21T14:06:22;3.80;;;1.42;;
73251;SDS011;61473;50.834;4.552;2022-08-21T14:08:56;3.42;;;1.15;;
73251;SDS011;61473;50.834;4.552;2022-08-21T14:11:24;2.95;;;1.40;;
73251;SDS011;61473;50.834;4.552;2022-08-21T14:16:26;3.95;;;1.35;;
73251;SDS011;61473;50.834;4.552;2022-08-21T14:19:38;7.70;;;1.52;;
73251;SDS011;61473;50.834;4.552;2022-08-21T14:25:01;3.67;;;0.90;;
73251;SDS011;61473;50.834;4.552;2022-08-21T14:27:31;3.58;;;1.20;;
73251;SDS011;61473;50.834;4.552;2022-08-21T14:30:04;3.03;;;1.00;;
73251;SDS011;61473;50.834;4.552;2022-08-21T14:32:44;3.60;;;1.25;;
73251;SDS011;61473;50.834;4.552;2022-08-21T14:35:10;5.15;;;1.67;;
73251;SDS011;61473;50.834;4.552;2022-08-21T14:37:36;6.53;;;1.50;;
73251;SDS011;61473;50.834;4.552;2022-08-21T14:40:03;2.85;;;1.58;;
73251;SDS011;61473;50.834;4.552;2022-08-21T14:42:30;3.53;;;1.77;;
73251;SDS011;61473;50.834;4.552;2022-08-21T14:44:57;3.97;;;1.67;;
73251;SDS011;61473;50.834;4.552;2022-08-21T14:47:26;3.85;;;1.30;;
73251;SDS011;61473;50.834;4.552;2022-08-21T14:49:53;2.72;;;1.23;;
73251;SDS011;61473;50.834;4.552;2022-08-21T14:52:19;3.38;;;1.58;;
73251;SDS011;61473;50.834;4.552;2022-08-21T14:54:45;3.85;;;1.30;;
73251;SDS011;61473;50.834;4.552;2022-08-21T14:57:11;3.15;;;1.67;;
73251;SDS011;61473;50.834;4.552;2022-08-21T14:59:37;4.10;;;1.40;;
73251;SDS011;61473;50.834;4.552;2022-08-21T15:02:04;8.43;;;1.55;;
73251;SDS011;61473;50.834;4.552;2022-08-21T15:04:31;9.90;;;1.80;;
73251;SDS011;61473;50.834;4.552;2022-08-21T15:06:57;5.07;;;2.47;;
73251;SDS011;61473;50.834;4.552;2022-08-21T15:09:23;7.82;;;1.80;;
73251;SDS011;61473;50.834;4.552;2022-08-21T15:11:49;9.93;;;3.22;;
73251;SDS011;61473;50.834;4.552;2022-08-21T15:14:23;8.85;;;2.40;;
73251;SDS011;61473;50.834;4.552;2022-08-21T15:16:51;7.97;;;2.10;;
73251;SDS011;61473;50.834;4.552;2022-08-21T15:19:17;8.32;;;2.20;;
73251;SDS011;61473;50.834;4.552;2022-08-21T15:21:43;7.22;;;2.05;;
73251;SDS011;61473;50.834;4.552;2022-08-21T15:24:09;7.68;;;2.53;;
73251;SDS011;61473;50.834;4.552;2022-08-21T15:26:35;7.25;;;2.45;;
73251;SDS011;61473;50.834;4.552;2022-08-21T15:29:01;10.02;;;1.83;;
73251;SDS011;61473;50.834;4.552;2022-08-21T15:31:30;9.10;;;2.63;;
73251;SDS011;61473;50.834;4.552;2022-08-21T15:33:55;7.28;;;3.10;;
73251;SDS011;61473;50.834;4.552;2022-08-21T15:36:21;7.35;;;2.08;;
73251;SDS011;61473;50.834;4.552;2022-08-21T15:38:47;10.05;;;2.28;;
73251;SDS011;61473;50.834;4.552;2022-08-21T15:41:13;7.40;;;2.03;;
73251;SDS011;61473;50.834;4.552;2022-08-21T15:43:42;6.93;;;2.20;;
73251;SDS011;61473;50.834;4.552;2022-08-21T15:48:41;12.63;;;2.88;;
73251;SDS011;61473;50.834;4.552;2022-08-21T15:51:06;7.30;;;2.05;;
73251;SDS011;61473;50.834;4.552;2022-08-21T15:53:33;8.45;;;2.60;;
73251;SDS011;61473;50.834;4.552;2022-08-21T15:56:03;8.50;;;2.58;;
73251;SDS011;61473;50.834;4.552;2022-08-21T15:58:30;6.40;;;2.30;;
73251;SDS011;61473;50.834;4.552;2022-08-21T16:00:58;12.35;;;2.65;;
73251;SDS011;61473;50.834;4.552;2022-08-21T16:03:25;15.05;;;3.05;;
73251;SDS011;61473;50.834;4.552;2022-08-21T16:05:51;10.15;;;2.22;;
73251;SDS011;61473;50.834;4.552;2022-08-21T16:08:18;20.27;;;2.72;;
73251;SDS011;61473;50.834;4.552;2022-08-21T16:10:45;25.27;;;3.72;;
73251;SDS011;61473;50.834;4.552;2022-08-21T16:13:15;6.38;;;2.45;;
73251;SDS011;61473;50.834;4.552;2022-08-21T16:15:52;6.03;;;2.10;;
73251;SDS011;61473;50.834;4.552;2022-08-21T16:18:19;15.95;;;2.58;;
73251;SDS011;61473;50.834;4.552;2022-08-21T16:20:46;14.60;;;2.80;;
73251;SDS011;61473;50.834;4.552;2022-08-21T16:23:12;10.60;;;2.72;;
73251;SDS011;61473;50.834;4.552;2022-08-21T16:25:37;8.75;;;2.40;;
73251;SDS011;61473;50.834;4.552;2022-08-21T16:28:04;8.43;;;2.45;;
73251;SDS011;61473;50.834;4.552;2022-08-21T16:30:32;8.32;;;2.13;;
73251;SDS011;61473;50.834;4.552;2022-08-21T16:32:59;4.97;;;1.83;;
73251;SDS011;61473;50.834;4.552;2022-08-21T16:35:26;4.88;;;1.55;;